CheckWX is a tool to help pilots better visualize weather data.  It is not intended as a substitute for an official pre-flight weather briefing.

14:00:00 UTC

CYBK METAR
Baker Lake Airport
Baker Lake, Canada
Current

60 mins ago

CYBK 251300Z 31015KT 25SM DRSN BKN040 M21/M24 A2995 RMK SC7 SLP147
Observed
Apr-25 @ 13:00 UTC
Wind
  • 310° at 15 KTS
Visibility
25 SM
Flight Rules
VFR
Conditions
Low drifting Snow
Cloud Levels
  • Broken at 4,000' AGL
Temperature
-21°C / -6°F
Dewpoint
-24°C / -11°F
Humidity
77%
Altimeter
29.95" Hg
Pressure
1014.22 hPa
Previous

2 hours ago

CYBK 251200Z 30020KT 25SM DRSN BKN044 M22/M25 A2997 RMK SC7 SLP152
Observed
Apr-25 @ 12:00 UTC
Wind
  • 300° at 20 KTS
Visibility
25 SM
Flight Rules
VFR
Conditions
Low drifting Snow
Cloud Levels
  • Broken at 4,400' AGL
Temperature
-22°C / -8°F
Dewpoint
-25°C / -13°F
Humidity
77%
Altimeter
29.97" Hg
Pressure
1014.92 hPa
Previous

3 hours ago

CYBK 251100Z 30017KT 20SM DRSN FEW040 M23/M26 A2996 RMK SC1 SLP150
Observed
Apr-25 @ 11:00 UTC
Wind
  • 300° at 17 KTS
Visibility
20 SM
Flight Rules
VFR
Conditions
Low drifting Snow
Cloud Levels
  • Few at 4,000' AGL
Temperature
-23°C / -9°F
Dewpoint
-26°C / -15°F
Humidity
77%
Altimeter
29.96" Hg
Pressure
1014.52 hPa